sensor_id;sensor_type;location;lat;lon;timestamp;pressure;altitude;pressure_sealevel;temperature;humidity
70458;BME280;57919;56.194;95.716;2023-07-31T00:03:43;98047.41;;;24.19;69.44
70458;BME280;57919;56.194;95.716;2023-07-31T00:13:44;98054.84;;;24.68;65.99
70458;BME280;57919;56.194;95.716;2023-07-31T00:23:47;98049.47;;;25.66;62.53
70458;BME280;57919;56.194;95.716;2023-07-31T00:33:48;98054.91;;;26.84;59.61
70458;BME280;57919;56.194;95.716;2023-07-31T00:43:50;98048.69;;;27.14;57.56
70458;BME280;57919;56.194;95.716;2023-07-31T00:53:53;98052.81;;;27.69;55.54
70458;BME280;57919;56.194;95.716;2023-07-31T01:03:55;98041.50;;;28.36;54.52
70458;BME280;57919;56.194;95.716;2023-07-31T01:13:58;98047.25;;;29.06;52.34
70458;BME280;57919;56.194;95.716;2023-07-31T01:24:23;98051.19;;;30.13;50.04
70458;BME280;57919;56.194;95.716;2023-07-31T01:34:31;98055.75;;;31.44;48.29
70458;BME280;57919;56.194;95.716;2023-07-31T01:44:34;98053.31;;;32.69;45.35
70458;BME280;57919;56.194;95.716;2023-07-31T01:54:36;98042.19;;;32.96;43.96
70458;BME280;57919;56.194;95.716;2023-07-31T02:04:38;98035.91;;;33.32;42.85
70458;BME280;57919;56.194;95.716;2023-07-31T02:14:45;98043.59;;;33.40;41.64
70458;BME280;57919;56.194;95.716;2023-07-31T02:24:47;98057.19;;;33.60;41.22
70458;BME280;57919;56.194;95.716;2023-07-31T02:34:49;98039.91;;;33.81;40.31
70458;BME280;57919;56.194;95.716;2023-07-31T02:44:52;98046.16;;;34.14;39.52
70458;BME280;57919;56.194;95.716;2023-07-31T02:54:58;98035.59;;;34.33;39.09
70458;BME280;57919;56.194;95.716;2023-07-31T03:04:59;98041.53;;;34.31;38.91
70458;BME280;57919;56.194;95.716;2023-07-31T03:15:02;98040.75;;;33.67;39.12
70458;BME280;57919;56.194;95.716;2023-07-31T03:25:07;98054.78;;;32.15;40.53
70458;BME280;57919;56.194;95.716;2023-07-31T03:35:08;98042.47;;;31.97;42.41
70458;BME280;57919;56.194;95.716;2023-07-31T03:45:11;98029.94;;;32.46;41.70
70458;BME280;57919;56.194;95.716;2023-07-31T03:55:13;98026.13;;;33.57;40.01
70458;BME280;57919;56.194;95.716;2023-07-31T04:05:14;98031.59;;;35.10;37.57
70458;BME280;57919;56.194;95.716;2023-07-31T04:15:16;98032.19;;;35.86;37.10
70458;BME280;57919;56.194;95.716;2023-07-31T04:25:18;98020.94;;;35.86;35.16
70458;BME280;57919;56.194;95.716;2023-07-31T04:35:22;98026.28;;;35.39;36.00
70458;BME280;57919;56.194;95.716;2023-07-31T04:45:23;98028.66;;;33.94;35.80
70458;BME280;57919;56.194;95.716;2023-07-31T04:55:26;98030.94;;;34.51;35.25
70458;BME280;57919;56.194;95.716;2023-07-31T05:05:27;98031.81;;;34.60;35.72
70458;BME280;57919;56.194;95.716;2023-07-31T05:15:29;98028.47;;;35.11;35.47
70458;BME280;57919;56.194;95.716;2023-07-31T05:25:32;98030.78;;;35.09;35.31
70458;BME280;57919;56.194;95.716;2023-07-31T05:35:33;98025.25;;;33.70;36.94
70458;BME280;57919;56.194;95.716;2023-07-31T05:45:36;98024.03;;;34.34;36.73
70458;BME280;57919;56.194;95.716;2023-07-31T05:55:38;98028.28;;;34.77;36.24
70458;BME280;57919;56.194;95.716;2023-07-31T06:05:40;98025.50;;;33.46;38.12
70458;BME280;57919;56.194;95.716;2023-07-31T06:15:42;98012.34;;;32.08;39.40
70458;BME280;57919;56.194;95.716;2023-07-31T06:25:44;98022.28;;;32.98;39.52
70458;BME280;57919;56.194;95.716;2023-07-31T06:35:46;98009.59;;;33.00;39.37
70458;BME280;57919;56.194;95.716;2023-07-31T06:45:48;98025.78;;;33.72;37.77
70458;BME280;57919;56.194;95.716;2023-07-31T06:55:53;98024.56;;;33.51;37.69
70458;BME280;57919;56.194;95.716;2023-07-31T07:05:55;98027.38;;;33.37;37.69
70458;BME280;57919;56.194;95.716;2023-07-31T07:15:56;98015.03;;;33.38;37.37
70458;BME280;57919;56.194;95.716;2023-07-31T07:25:59;98026.00;;;33.62;36.88
70458;BME280;57919;56.194;95.716;2023-07-31T07:36:01;98024.66;;;33.59;36.17
70458;BME280;57919;56.194;95.716;2023-07-31T07:46:03;98018.53;;;33.02;37.95
70458;BME280;57919;56.194;95.716;2023-07-31T07:56:05;98007.84;;;33.04;38.26
70458;BME280;57919;56.194;95.716;2023-07-31T08:06:07;98013.66;;;32.94;37.79
70458;BME280;57919;56.194;95.716;2023-07-31T08:16:10;98013.78;;;32.57;37.69
70458;BME280;57919;56.194;95.716;2023-07-31T08:26:19;98011.16;;;32.47;37.87
70458;BME280;57919;56.194;95.716;2023-07-31T08:36:20;98022.09;;;32.10;38.26
70458;BME280;57919;56.194;95.716;2023-07-31T08:46:22;98023.47;;;31.94;38.79
70458;BME280;57919;56.194;95.716;2023-07-31T08:56:25;98013.66;;;31.97;38.26
70458;BME280;57919;56.194;95.716;2023-07-31T09:06:29;98024.69;;;31.69;39.00
70458;BME280;57919;56.194;95.716;2023-07-31T09:16:32;98029.34;;;31.55;39.12
70458;BME280;57919;56.194;95.716;2023-07-31T09:26:36;98031.28;;;31.36;39.36
70458;BME280;57919;56.194;95.716;2023-07-31T09:36:51;98027.84;;;30.67;40.32
70458;BME280;57919;56.194;95.716;2023-07-31T09:46:55;98030.63;;;30.67;39.91
70458;BME280;57919;56.194;95.716;2023-07-31T09:56:58;98026.56;;;30.83;39.55
70458;BME280;57919;56.194;95.716;2023-07-31T10:07:02;98037.72;;;30.83;40.95
70458;BME280;57919;56.194;95.716;2023-07-31T10:17:06;98033.22;;;30.59;40.88
70458;BME280;57919;56.194;95.716;2023-07-31T10:27:10;98039.34;;;30.27;41.28
70458;BME280;57919;56.194;95.716;2023-07-31T10:37:36;98047.31;;;30.09;41.97
70458;BME280;57919;56.194;95.716;2023-07-31T10:47:43;98027.97;;;29.79;42.68
70458;BME280;57919;56.194;95.716;2023-07-31T10:57:47;98039.78;;;29.61;43.03
70458;BME280;57919;56.194;95.716;2023-07-31T11:07:49;98044.88;;;29.38;43.83
70458;BME280;57919;56.194;95.716;2023-07-31T11:17:51;98043.31;;;29.12;44.47
70458;BME280;57919;56.194;95.716;2023-07-31T11:27:53;98038.09;;;28.90;45.04
70458;BME280;57919;56.194;95.716;2023-07-31T11:37:57;98036.75;;;28.62;45.05
70458;BME280;57919;56.194;95.716;2023-07-31T11:48:00;98053.19;;;28.43;45.43
70458;BME280;57919;56.194;95.716;2023-07-31T11:58:03;98047.91;;;28.32;45.72
70458;BME280;57919;56.194;95.716;2023-07-31T12:08:11;98058.72;;;28.13;46.86
70458;BME280;57919;56.194;95.716;2023-07-31T12:18:15;98050.63;;;27.86;46.96
70458;BME280;57919;56.194;95.716;2023-07-31T12:28:22;98070.31;;;27.69;47.30
70458;BME280;57919;56.194;95.716;2023-07-31T12:38:24;98069.09;;;27.40;47.71
70458;BME280;57919;56.194;95.716;2023-07-31T12:48:25;98072.31;;;27.16;48.38
70458;BME280;57919;56.194;95.716;2023-07-31T12:58:28;98063.81;;;26.86;49.83
70458;BME280;57919;56.194;95.716;2023-07-31T13:08:30;98080.25;;;26.55;50.23
70458;BME280;57919;56.194;95.716;2023-07-31T13:18:32;98085.25;;;26.26;50.68
70458;BME280;57919;56.194;95.716;2023-07-31T13:28:34;98091.91;;;25.98;52.35
70458;BME280;57919;56.194;95.716;2023-07-31T13:38:36;98094.75;;;25.77;53.97
70458;BME280;57919;56.194;95.716;2023-07-31T13:48:38;98090.50;;;25.47;55.11
70458;BME280;57919;56.194;95.716;2023-07-31T13:58:40;98116.38;;;25.14;56.35
70458;BME280;57919;56.194;95.716;2023-07-31T14:08:42;98113.06;;;24.78;57.09
70458;BME280;57919;56.194;95.716;2023-07-31T14:18:43;98127.34;;;24.54;58.73
70458;BME280;57919;56.194;95.716;2023-07-31T14:28:47;98134.63;;;24.26;60.21
70458;BME280;57919;56.194;95.716;2023-07-31T14:38:48;98128.38;;;24.19;60.31
70458;BME280;57919;56.194;95.716;2023-07-31T14:48:50;98126.34;;;23.98;61.27
70458;BME280;57919;56.194;95.716;2023-07-31T14:58:53;98130.31;;;23.73;62.54
70458;BME280;57919;56.194;95.716;2023-07-31T15:08:55;98144.06;;;23.57;63.33
70458;BME280;57919;56.194;95.716;2023-07-31T15:18:57;98151.75;;;23.43;64.44
70458;BME280;57919;56.194;95.716;2023-07-31T15:29:04;98147.44;;;23.35;64.90
70458;BME280;57919;56.194;95.716;2023-07-31T15:39:10;98150.22;;;23.24;65.36
70458;BME280;57919;56.194;95.716;2023-07-31T15:49:12;98147.75;;;22.99;66.33
70458;BME280;57919;56.194;95.716;2023-07-31T15:59:15;98160.78;;;22.68;67.11
70458;BME280;57919;56.194;95.716;2023-07-31T16:09:17;98161.69;;;22.39;67.88
70458;BME280;57919;56.194;95.716;2023-07-31T16:19:19;98174.59;;;22.15;69.09
70458;BME280;57919;56.194;95.716;2023-07-31T16:29:21;98165.38;;;21.91;69.53
70458;BME280;57919;56.194;95.716;2023-07-31T16:39:23;98162.13;;;21.64;71.06
70458;BME280;57919;56.194;95.716;2023-07-31T16:49:25;98175.75;;;21.59;70.78
70458;BME280;57919;56.194;95.716;2023-07-31T16:59:27;98185.78;;;21.35;71.42
70458;BME280;57919;56.194;95.716;2023-07-31T17:09:29;98188.97;;;21.14;72.40
70458;BME280;57919;56.194;95.716;2023-07-31T17:19:31;98176.88;;;20.96;72.76
70458;BME280;57919;56.194;95.716;2023-07-31T17:29:33;98162.09;;;20.73;73.40
70458;BME280;57919;56.194;95.716;2023-07-31T17:39:35;98154.66;;;20.55;73.92
70458;BME280;57919;56.194;95.716;2023-07-31T17:49:38;98166.63;;;20.36;74.45
70458;BME280;57919;56.194;95.716;2023-07-31T17:59:40;98170.41;;;20.10;75.56
70458;BME280;57919;56.194;95.716;2023-07-31T18:09:44;98168.38;;;19.98;75.70
70458;BME280;57919;56.194;95.716;2023-07-31T18:19:46;98170.72;;;19.95;76.05
70458;BME280;57919;56.194;95.716;2023-07-31T18:29:48;98182.59;;;19.89;76.38
70458;BME280;57919;56.194;95.716;2023-07-31T18:39:50;98177.59;;;19.73;77.40
70458;BME280;57919;56.194;95.716;2023-07-31T18:49:52;98171.13;;;19.60;78.59
70458;BME280;57919;56.194;95.716;2023-07-31T18:59:54;98180.59;;;19.64;78.22
70458;BME280;57919;56.194;95.716;2023-07-31T19:09:56;98168.63;;;19.52;78.57
70458;BME280;57919;56.194;95.716;2023-07-31T19:19:58;98190.97;;;19.49;78.44
70458;BME280;57919;56.194;95.716;2023-07-31T19:30:00;98190.22;;;19.29;78.90
70458;BME280;57919;56.194;95.716;2023-07-31T19:40:02;98201.44;;;19.14;79.50
70458;BME280;57919;56.194;95.716;2023-07-31T19:50:05;98195.78;;;19.02;79.46
70458;BME280;57919;56.194;95.716;2023-07-31T20:00:07;98204.44;;;18.86;79.95
70458;BME280;57919;56.194;95.716;2023-07-31T20:10:12;98200.03;;;18.72;80.17
70458;BME280;57919;56.194;95.716;2023-07-31T20:20:14;98220.06;;;18.66;80.21
70458;BME280;57919;56.194;95.716;2023-07-31T20:30:17;98220.44;;;18.50;80.62
70458;BME280;57919;56.194;95.716;2023-07-31T20:40:19;98213.06;;;18.37;80.90
70458;BME280;57919;56.194;95.716;2023-07-31T20:50:21;98213.28;;;18.29;81.14
70458;BME280;57919;56.194;95.716;2023-07-31T21:00:23;98218.09;;;18.14;81.35
70458;BME280;57919;56.194;95.716;2023-07-31T21:10:24;98229.06;;;18.14;81.56
70458;BME280;57919;56.194;95.716;2023-07-31T21:20:26;98229.44;;;17.97;81.94
70458;BME280;57919;56.194;95.716;2023-07-31T21:30:29;98234.41;;;17.74;82.84
70458;BME280;57919;56.194;95.716;2023-07-31T21:40:31;98231.25;;;17.70;82.44
70458;BME280;57919;56.194;95.716;2023-07-31T21:50:33;98247.47;;;17.72;82.61
70458;BME280;57919;56.194;95.716;2023-07-31T22:00:35;98264.91;;;17.71;82.85
70458;BME280;57919;56.194;95.716;2023-07-31T22:10:37;98263.66;;;17.73;82.52
70458;BME280;57919;56.194;95.716;2023-07-31T22:20:39;98270.22;;;17.86;82.25
70458;BME280;57919;56.194;95.716;2023-07-31T22:30:41;98275.53;;;18.00;82.02
70458;BME280;57919;56.194;95.716;2023-07-31T22:40:43;98266.97;;;18.17;81.81
70458;BME280;57919;56.194;95.716;2023-07-31T22:50:46;98280.72;;;18.50;81.97
70458;BME280;57919;56.194;95.716;2023-07-31T23:00:48;98284.97;;;18.72;81.88
70458;BME280;57919;56.194;95.716;2023-07-31T23:10:50;98277.59;;;18.92;81.63
70458;BME280;57919;56.194;95.716;2023-07-31T23:20:52;98261.25;;;19.44;80.91
70458;BME280;57919;56.194;95.716;2023-07-31T23:31:04;98267.03;;;20.31;79.14
70458;BME280;57919;56.194;95.716;2023-07-31T23:41:06;98291.94;;;21.24;76.96
70458;BME280;57919;56.194;95.716;2023-07-31T23:51:08;98300.19;;;22.34;74.19
